createdAt,value
2023-01-30T00:02:16.434Z,100456.34
2023-01-30T00:06:18.603Z,100450.22
2023-01-30T00:10:20.425Z,100437.34
2023-01-30T00:14:22.810Z,100430.91
2023-01-30T00:18:24.510Z,100411.91
2023-01-30T00:22:26.150Z,100435.81
2023-01-30T00:26:27.895Z,100447.50
2023-01-30T00:30:30.144Z,100447.69
2023-01-30T00:34:32.851Z,100415.66
2023-01-30T00:38:34.621Z,100395.28
2023-01-30T00:42:54.695Z,100362.78
2023-01-30T00:47:05.386Z,100342.06
2023-01-30T00:51:07.260Z,100325.81
2023-01-30T00:55:09.205Z,100339.53
2023-01-30T00:59:10.740Z,100340.53
2023-01-30T01:03:12.959Z,100329.19
2023-01-30T01:07:15.277Z,100329.19
2023-01-30T01:11:24.639Z,100318.84
2023-01-30T01:15:27.248Z,100300.69
2023-01-30T01:19:28.949Z,100329.81
2023-01-30T01:23:30.522Z,100322.03
2023-01-30T01:27:32.360Z,100354.91
2023-01-30T01:31:34.050Z,100340.31
2023-01-30T01:35:40.920Z,100340.50
2023-01-30T01:40:00.907Z,100315.25
2023-01-30T01:44:11.258Z,100308.13
2023-01-30T01:48:26.321Z,100306.59
2023-01-30T01:52:28.975Z,100304.75
2023-01-30T01:56:34.580Z,100299.81
2023-01-30T02:00:36.342Z,100309.81
2023-01-30T02:05:01.619Z,100303.69
2023-01-30T02:09:08.565Z,100294.53
2023-01-30T02:13:10.120Z,100295.72
2023-01-30T02:17:11.779Z,100264.19
2023-01-30T02:21:34.750Z,100260.81
2023-01-30T02:26:12.837Z,100250.75
2023-01-30T02:30:36.386Z,100254.66
2023-01-30T02:35:05.569Z,100260.28
2023-01-30T02:39:25.072Z,100266.06
2023-01-30T02:43:37.833Z,100259.94
2023-01-30T02:47:56.839Z,100247.06
2023-01-30T02:52:00.878Z,100256.22
2023-01-30T02:56:03.780Z,100261.28
2023-01-30T03:00:07.786Z,100257.03
2023-01-30T03:04:26.734Z,100251.44
2023-01-30T03:08:41.430Z,100257.84
2023-01-30T03:12:55.291Z,100236.13
2023-01-30T03:17:01.236Z,100235.97
2023-01-30T03:21:07.549Z,100242.25
2023-01-30T03:25:10.039Z,100240.88
2023-01-30T03:29:11.691Z,100237.50
2023-01-30T03:33:14.263Z,100240.06
2023-01-30T03:37:21.632Z,100230.09
2023-01-30T03:41:23.396Z,100225.66
2023-01-30T03:45:25.046Z,100236.00
2023-01-30T03:49:27.618Z,100235.81
2023-01-30T03:53:29.976Z,100215.81
2023-01-30T03:57:31.572Z,100211.94
2023-01-30T04:01:34.469Z,100193.94
2023-01-30T04:05:36.984Z,100189.19
2023-01-30T04:09:41.878Z,100194.13
2023-01-30T04:13:45.550Z,100191.72
2023-01-30T04:17:47.988Z,100176.53
2023-01-30T04:22:08.192Z,100161.56
2023-01-30T04:26:11.292Z,100170.19
2023-01-30T04:30:15.613Z,100167.84
2023-01-30T04:34:17.809Z,100169.72
2023-01-30T04:38:20.259Z,100149.56
2023-01-30T04:42:22.168Z,100153.78
2023-01-30T04:46:43.767Z,100152.81
2023-01-30T04:50:49.709Z,100139.91
2023-01-30T04:54:51.308Z,100139.59
2023-01-30T04:58:53.070Z,100128.94
2023-01-30T05:02:58.241Z,100132.16
2023-01-30T05:06:59.834Z,100103.72
2023-01-30T05:11:01.499Z,100101.56
2023-01-30T05:15:03.185Z,100099.84
2023-01-30T05:19:04.912Z,100101.88
2023-01-30T05:23:06.467Z,100106.63
2023-01-30T05:27:08.029Z,100108.47
2023-01-30T05:31:14.116Z,100113.19
2023-01-30T05:35:16.220Z,100123.03
2023-01-30T05:39:18.151Z,100129.41
2023-01-30T05:43:19.722Z,100129.88
2023-01-30T05:47:21.286Z,100103.63
2023-01-30T05:51:25.480Z,100102.59
2023-01-30T05:55:27.025Z,100081.94
2023-01-30T05:59:28.661Z,100090.06
2023-01-30T06:03:30.345Z,100073.59
2023-01-30T06:07:32.305Z,100065.75
2023-01-30T06:11:33.948Z,100072.69
2023-01-30T06:15:36.942Z,100064.66
2023-01-30T06:19:38.497Z,100072.44
2023-01-30T06:23:40.090Z,100068.53
2023-01-30T06:27:43.351Z,100071.19
2023-01-30T06:31:45.069Z,100087.81
2023-01-30T06:35:49.765Z,100079.97
2023-01-30T06:39:51.343Z,100079.25
2023-01-30T06:43:52.985Z,100075.78
2023-01-30T06:47:55.899Z,100084.31
2023-01-30T06:51:57.673Z,100071.47
2023-01-30T06:56:01.177Z,100059.50
2023-01-30T07:00:11.204Z,100072.25
2023-01-30T07:04:12.835Z,100080.47
2023-01-30T07:08:15.854Z,100093.13
2023-01-30T07:12:17.482Z,100079.00
2023-01-30T07:16:19.121Z,100061.84
2023-01-30T07:20:20.721Z,100069.34
2023-01-30T07:24:43.373Z,100075.56
2023-01-30T07:28:46.196Z,100103.53
2023-01-30T07:32:54.698Z,100131.34
2023-01-30T07:36:56.298Z,100090.97
2023-01-30T07:40:58.831Z,100113.56
2023-01-30T07:45:00.368Z,100110.28
2023-01-30T07:49:02.517Z,100105.91
2023-01-30T07:53:05.859Z,100098.75
2023-01-30T07:57:07.434Z,100128.94
2023-01-30T08:01:09.138Z,100119.78
2023-01-30T08:05:10.709Z,100115.72
2023-01-30T08:09:13.261Z,100113.47
2023-01-30T08:13:14.971Z,100128.19
2023-01-30T08:17:16.649Z,100105.34
2023-01-30T08:21:18.824Z,100092.44
2023-01-30T08:25:22.997Z,100088.16
2023-01-30T08:29:24.538Z,100092.75
2023-01-30T08:33:26.161Z,100087.94
2023-01-30T08:37:27.731Z,100085.72
2023-01-30T08:41:29.349Z,100098.94
2023-01-30T08:45:31.682Z,100105.97
2023-01-30T08:49:33.292Z,100102.19
2023-01-30T08:53:36.461Z,100097.34
2023-01-30T08:57:52.320Z,100075.50
2023-01-30T09:02:06.694Z,100069.13
2023-01-30T09:06:40.854Z,100068.09
2023-01-30T09:11:39.780Z,100057.91
2023-01-30T09:21:04.818Z,100042.50
2023-01-30T09:25:07.170Z,100055.53
2023-01-30T09:29:09.092Z,100054.78
2023-01-30T09:33:10.705Z,100055.63
2023-01-30T09:37:12.248Z,100063.59
2023-01-30T09:41:57.009Z,100046.16
2023-01-30T09:46:12.712Z,100051.84
2023-01-30T09:50:47.755Z,100032.94
2023-01-30T09:55:00.861Z,100025.16
2023-01-30T09:59:04.734Z,100055.13
2023-01-30T10:03:15.201Z,100048.94
2023-01-30T10:07:21.269Z,100033.72
2023-01-30T10:11:47.960Z,100028.09
2023-01-30T10:16:03.927Z,100034.00
2023-01-30T10:20:37.381Z,100025.13
2023-01-30T10:24:52.106Z,100020.97
2023-01-30T10:29:08.548Z,100021.03
2023-01-30T10:33:25.277Z,100013.69
2023-01-30T10:37:32.610Z,100006.63
2023-01-30T10:41:45.609Z,100008.00
2023-01-30T10:45:53.638Z,99983.81
2023-01-30T10:50:17.938Z,99986.03
2023-01-30T10:54:27.120Z,99986.81
2023-01-30T10:58:53.395Z,99988.03
2023-01-30T11:03:11.848Z,100007.59
2023-01-30T11:07:13.916Z,100014.34
2023-01-30T11:11:25.313Z,99996.31
2023-01-30T11:15:44.942Z,99994.91
2023-01-30T11:19:55.671Z,99994.75
2023-01-30T11:24:03.348Z,99997.09
2023-01-30T11:28:06.412Z,99999.88
2023-01-30T11:32:27.154Z,100008.69
2023-01-30T11:36:33.459Z,100002.59
2023-01-30T11:40:38.952Z,99995.47
2023-01-30T11:44:42.447Z,99996.72
2023-01-30T11:49:02.876Z,100015.84
2023-01-30T11:53:34.347Z,100027.19
2023-01-30T11:57:42.035Z,100020.25
2023-01-30T12:01:44.893Z,100018.13
2023-01-30T12:05:47.457Z,100024.63
2023-01-30T12:09:50.591Z,100025.06
2023-01-30T12:13:55.276Z,100026.78
2023-01-30T12:18:25.543Z,100014.16
2023-01-30T12:22:59.548Z,100020.25
2023-01-30T12:27:39.362Z,100009.53
2023-01-30T12:31:47.901Z,100002.63
2023-01-30T12:36:27.631Z,99982.63
2023-01-30T12:40:47.336Z,99984.03
2023-01-30T12:45:13.438Z,99981.88
2023-01-30T12:49:33.914Z,99985.91
2023-01-30T12:53:35.621Z,99984.44
2023-01-30T12:57:46.880Z,99984.88
2023-01-30T13:02:07.343Z,99987.22
2023-01-30T13:06:26.322Z,99989.53
2023-01-30T13:10:37.931Z,99993.50
2023-01-30T13:14:48.668Z,99999.81
2023-01-30T13:19:23.064Z,99994.13
2023-01-30T13:23:57.458Z,99989.47
2023-01-30T13:28:04.525Z,99990.53
2023-01-30T13:32:14.970Z,99991.53
2023-01-30T13:36:39.914Z,100003.53
2023-01-30T13:40:44.224Z,99999.28
2023-01-30T13:44:46.649Z,100017.38
2023-01-30T13:49:07.046Z,100016.34
2023-01-30T13:53:22.696Z,100023.53
2023-01-30T13:57:40.952Z,100028.41
2023-01-30T14:02:03.789Z,100032.59
2023-01-30T14:06:10.803Z,100039.34
2023-01-30T14:10:20.689Z,100045.25
2023-01-30T14:14:31.822Z,100037.25
2023-01-30T14:18:36.283Z,100046.53
2023-01-30T14:22:55.755Z,100025.94
2023-01-30T14:27:01.726Z,100038.31
2023-01-30T14:31:03.735Z,100033.94
2023-01-30T14:35:05.600Z,100039.34
2023-01-30T14:39:40.610Z,100035.16
2023-01-30T14:43:42.395Z,100056.34
2023-01-30T14:47:46.534Z,100072.72
2023-01-30T14:51:50.495Z,100076.09
2023-01-30T14:56:01.423Z,100096.06
2023-01-30T15:00:18.187Z,100108.47
2023-01-30T15:04:21.189Z,100109.75
2023-01-30T15:08:26.595Z,100112.25
2023-01-30T15:12:30.850Z,100132.81
2023-01-30T15:16:38.304Z,100141.81
2023-01-30T15:21:00.206Z,100142.88
2023-01-30T15:25:27.558Z,100155.28
2023-01-30T15:30:00.626Z,100171.28
2023-01-30T15:34:02.183Z,100173.19
2023-01-30T15:38:03.768Z,100166.22
2023-01-30T15:42:08.114Z,100171.44
2023-01-30T15:46:21.949Z,100171.44
2023-01-30T15:50:23.642Z,100180.69
2023-01-30T15:54:25.329Z,100180.44
2023-01-30T15:58:28.260Z,100178.94
2023-01-30T16:02:31.754Z,100181.78
2023-01-30T16:06:35.830Z,100183.53
2023-01-30T16:10:44.459Z,100192.88
2023-01-30T16:14:46.069Z,100201.59
2023-01-30T16:18:50.837Z,100215.38
2023-01-30T16:22:53.346Z,100223.06
2023-01-30T16:27:01.750Z,100217.06
2023-01-30T16:31:06.970Z,100226.41
2023-01-30T16:35:27.844Z,100238.47
2023-01-30T16:39:36.064Z,100236.41
2023-01-30T16:43:44.354Z,100256.00
2023-01-30T16:47:45.944Z,100258.66
2023-01-30T16:51:49.288Z,100253.53
2023-01-30T16:55:58.922Z,100256.53
2023-01-30T17:00:14.592Z,100264.59
2023-01-30T17:04:21.367Z,100266.13
2023-01-30T17:08:49.641Z,100271.63
2023-01-30T17:12:53.167Z,100292.41
2023-01-30T17:17:09.945Z,100291.59
2023-01-30T17:21:13.660Z,100294.59
2023-01-30T17:25:31.660Z,100292.31
2023-01-30T17:29:42.479Z,100308.28
2023-01-30T17:33:44.692Z,100309.16
2023-01-30T17:37:59.633Z,100311.50
2023-01-30T17:42:09.388Z,100315.50
2023-01-30T17:46:12.889Z,100323.56
2023-01-30T17:50:14.714Z,100330.50
2023-01-30T17:54:17.088Z,100339.75
2023-01-30T17:58:19.286Z,100350.28
2023-01-30T18:02:20.886Z,100355.56
2023-01-30T18:06:22.424Z,100373.22
2023-01-30T18:10:24.378Z,100382.28
2023-01-30T18:14:25.942Z,100379.53
2023-01-30T18:18:27.572Z,100373.88
2023-01-30T18:22:29.118Z,100382.63
2023-01-30T18:26:30.794Z,100394.97
2023-01-30T18:30:32.422Z,100398.75
2023-01-30T18:34:34.041Z,100415.75
2023-01-30T18:38:36.423Z,100422.69
2023-01-30T18:42:37.969Z,100415.13
2023-01-30T18:46:39.576Z,100411.69
2023-01-30T18:50:41.215Z,100421.72
2023-01-30T18:54:43.301Z,100431.22
2023-01-30T18:58:45.033Z,100431.69
2023-01-30T19:02:53.685Z,100427.44
2023-01-30T19:06:55.343Z,100439.41
2023-01-30T19:11:24.588Z,100446.63
2023-01-30T19:15:26.239Z,100449.34
2023-01-30T19:19:28.260Z,100444.16
2023-01-30T19:23:31.018Z,100467.75
2023-01-30T19:27:36.353Z,100462.78
2023-01-30T19:31:38.247Z,100443.50
2023-01-30T19:35:42.395Z,100471.97
2023-01-30T19:39:44.037Z,100473.25
2023-01-30T19:43:45.961Z,100479.22
2023-01-30T19:47:47.641Z,100488.69
2023-01-30T19:51:49.312Z,100491.63
2023-01-30T19:55:51.792Z,100494.16
2023-01-30T19:59:53.413Z,100503.63
2023-01-30T20:03:55.563Z,100493.09
2023-01-30T20:07:57.148Z,100504.69
2023-01-30T20:11:58.714Z,100514.00
2023-01-30T20:16:06.131Z,100513.34
2023-01-30T20:20:10.309Z,100506.16
2023-01-30T20:24:13.697Z,100519.34
2023-01-30T20:28:15.329Z,100530.06
2023-01-30T20:32:16.858Z,100539.31
2023-01-30T20:36:19.792Z,100538.44
2023-01-30T20:40:21.509Z,100541.78
2023-01-30T20:44:24.467Z,100545.94
2023-01-30T20:48:25.952Z,100552.66
2023-01-30T20:52:29.526Z,100552.91
2023-01-30T20:56:43.165Z,100550.00
2023-01-30T21:00:44.911Z,100567.09
2023-01-30T21:04:46.496Z,100564.16
2023-01-30T21:08:48.118Z,100583.28
2023-01-30T21:12:49.736Z,100581.59
2023-01-30T21:16:51.374Z,100587.72
2023-01-30T21:20:52.948Z,100598.81
2023-01-30T21:24:54.674Z,100592.84
2023-01-30T21:28:56.374Z,100602.94
2023-01-30T21:32:58.542Z,100602.94
2023-01-30T21:37:18.995Z,100622.06
2023-01-30T21:41:43.511Z,100611.13
2023-01-30T21:45:45.409Z,100616.97
2023-01-30T21:49:47.032Z,100610.22
2023-01-30T21:53:49.386Z,100621.97
2023-01-30T21:57:52.393Z,100628.28
2023-01-30T22:01:53.956Z,100622.06
2023-01-30T22:05:55.720Z,100644.81
2023-01-30T22:09:57.566Z,100646.50
2023-01-30T22:14:20.719Z,100640.88
2023-01-30T22:18:22.299Z,100655.75
2023-01-30T22:22:24.728Z,100659.16
2023-01-30T22:26:26.799Z,100667.97
2023-01-30T22:30:28.444Z,100669.69
2023-01-30T22:34:30.061Z,100679.38
2023-01-30T22:38:31.857Z,100678.06
2023-01-30T22:42:33.405Z,100681.19
2023-01-30T22:46:37.581Z,100689.84
2023-01-30T22:50:39.315Z,100686.94
2023-01-30T22:54:40.971Z,100695.22
2023-01-30T22:58:43.769Z,100681.50
2023-01-30T23:02:45.456Z,100685.25
2023-01-30T23:06:48.332Z,100686.31
2023-01-30T23:10:49.833Z,100684.44
2023-01-30T23:14:51.460Z,100693.22
2023-01-30T23:18:56.658Z,100683.06
2023-01-30T23:22:58.198Z,100681.94
2023-01-30T23:27:03.192Z,100679.22
2023-01-30T23:31:10.567Z,100669.31
2023-01-30T23:35:12.176Z,100668.22
2023-01-30T23:39:14.351Z,100676.97
2023-01-30T23:43:16.544Z,100682.53
2023-01-30T23:47:18.129Z,100672.94
2023-01-30T23:51:21.273Z,100677.25
2023-01-30T23:55:22.824Z,100684.59
2023-01-30T23:59:24.456Z,100683.34
